Time;durP1;ratioP1;P1;durP2;ratioP2;P2;SDS_P1;SDS_P2;PMS_P1;PMS_P2;Temp;Humidity;BMP_temperature;BMP_pressure;BME280_temperature;BME280_humidity;BME280_pressure;Samples;Min_cycle;Max_cycle;Signal;HPM_P1;HPM_P2
2021/05/21 00:00:16;;;;;;;;;;;;;;;18.97;71.04;100489.31;5004633;28;1902;-61
2021/05/21 00:02:42;;;;;;;;;;;;;;;18.98;70.95;100496.34;5008223;28;1434;-59
2021/05/21 00:05:09;;;;;;;;;;;;;;;18.93;70.94;100490.59;5011933;28;1599;-61
2021/05/21 00:07:36;;;;;;;;;;;;;;;18.90;71.23;100489.03;5004718;28;1461;-59
2021/05/21 00:10:03;;;;;;;;;;;;;;;18.91;71.24;100493.41;5004701;28;1634;-59
2021/05/21 00:12:29;;;;;;;;;;;;;;;18.89;71.42;100487.34;5002970;28;1528;-62
2021/05/21 00:14:55;;;;;;;;;;;;;;;18.89;71.17;100492.69;5010383;28;1526;-61
2021/05/21 00:17:21;;;;;;;;;;;;;;;18.88;71.03;100491.84;5005010;28;1519;-59
2021/05/21 00:19:47;;;;;;;;;;;;;;;18.86;71.07;100501.88;5015941;28;1902;-59
2021/05/21 00:22:13;;;;;;;;;;;;;;;18.90;71.31;100499.75;5007430;28;1531;-61
2021/05/21 00:24:40;;;;;;;;;;;;;;;18.84;71.13;100477.06;5007191;28;899;-59
2021/05/21 00:27:07;;;;;;;;;;;;;;;18.90;71.89;100505.13;5008285;28;1510;-61
2021/05/21 00:29:33;;;;;;;;;;;;;;;18.86;71.16;100493.84;5006207;28;1585;-61
2021/05/21 00:31:59;;;;;;;;;;;;;;;18.85;71.78;100489.44;5007712;28;1484;-61
2021/05/21 00:34:26;;;;;;;;;;;;;;;18.89;71.45;100503.41;5015826;28;1635;-59
2021/05/21 00:36:52;;;;;;;;;;;;;;;18.84;71.41;100511.00;5006810;28;1129;-61
2021/05/21 00:39:19;;;;;;;;;;;;;;;18.85;71.67;100502.00;5005921;28;1906;-62
2021/05/21 00:41:46;;;;;;;;;;;;;;;18.87;71.63;100516.94;5009773;28;1519;-59
2021/05/21 00:44:12;;;;;;;;;;;;;;;18.90;71.34;100521.19;5008420;28;1523;-60
2021/05/21 00:46:38;;;;;;;;;;;;;;;18.87;71.53;100521.47;5007875;28;1623;-59
2021/05/21 00:49:05;;;;;;;;;;;;;;;18.83;71.11;100503.97;5013584;28;1128;-61
2021/05/21 00:51:32;;;;;;;;;;;;;;;18.80;70.91;100509.59;5012050;28;1715;-59
2021/05/21 00:53:58;;;;;;;;;;;;;;;18.84;72.15;100513.69;5007206;28;1511;-61
2021/05/21 00:56:24;;;;;;;;;;;;;;;18.83;71.40;100522.72;5010148;28;1646;-59
2021/05/21 00:58:51;;;;;;;;;;;;;;;18.82;71.63;100529.94;5011265;28;1631;-61
2021/05/21 01:01:18;;;;;;;;;;;;;;;18.81;71.83;100516.66;5007640;28;1910;-60
2021/05/21 01:03:44;;;;;;;;;;;;;;;18.81;71.80;100532.75;5008892;28;1503;-62
2021/05/21 01:06:11;;;;;;;;;;;;;;;18.80;71.59;100536.38;5008396;28;2048;-62
2021/05/21 01:08:38;;;;;;;;;;;;;;;18.78;71.44;100532.97;5012778;28;1383;-60
2021/05/21 01:11:05;;;;;;;;;;;;;;;18.82;71.82;100537.09;5005849;28;1575;-61
2021/05/21 01:13:31;;;;;;;;;;;;;;;18.86;71.60;100535.81;5011768;28;1507;-60
2021/05/21 01:15:58;;;;;;;;;;;;;;;18.87;71.67;100543.72;5005476;28;1514;-59
2021/05/21 01:18:24;;;;;;;;;;;;;;;18.81;71.65;100524.69;5005090;28;1710;-59
2021/05/21 01:20:51;;;;;;;;;;;;;;;18.80;71.31;100536.38;5003010;28;1911;-61
2021/05/21 01:23:18;;;;;;;;;;;;;;;18.79;70.92;100540.91;5008879;28;1638;-59
2021/05/21 01:25:44;;;;;;;;;;;;;;;18.76;71.17;100545.66;5009115;28;1572;-59
2021/05/21 01:28:13;;;;;;;;;;;;;;;18.79;70.82;100543.59;5004895;28;1579;-59
2021/05/21 01:30:39;;;;;;;;;;;;;;;18.79;71.16;100556.97;5004988;28;1418;-61
2021/05/21 01:33:07;;;;;;;;;;;;;;;18.76;70.80;100556.38;5012592;28;1966;-61
2021/05/21 01:35:33;;;;;;;;;;;;;;;18.77;70.81;100558.09;5012906;28;1506;-61
2021/05/21 01:38:00;;;;;;;;;;;;;;;18.76;71.06;100548.34;5005972;28;1575;-59
2021/05/21 01:40:26;;;;;;;;;;;;;;;18.78;71.40;100562.44;5004660;28;1985;-62
2021/05/21 01:42:52;;;;;;;;;;;;;;;18.77;70.44;100558.94;5005805;28;1993;-59
2021/05/21 01:45:18;;;;;;;;;;;;;;;18.77;71.63;100561.59;5011038;28;1541;-59
2021/05/21 01:47:47;;;;;;;;;;;;;;;18.75;71.04;100560.06;5005402;28;1531;-61
2021/05/21 01:50:13;;;;;;;;;;;;;;;18.75;71.25;100554.69;5013113;28;1769;-59
2021/05/21 01:52:39;;;;;;;;;;;;;;;18.77;71.02;100563.44;5008584;28;1693;-59
2021/05/21 01:55:06;;;;;;;;;;;;;;;18.77;71.63;100560.75;5010149;28;1761;-61
2021/05/21 01:57:35;;;;;;;;;;;;;;;18.78;71.28;100551.72;5005549;28;1472;-61
2021/05/21 02:00:01;;;;;;;;;;;;;;;18.77;71.48;100542.00;5005619;28;1911;-61
2021/05/21 02:02:27;;;;;;;;;;;;;;;18.78;71.71;100571.34;5001125;28;1622;-59
2021/05/21 02:04:53;;;;;;;;;;;;;;;18.76;71.66;100556.38;5001941;28;1526;-61
2021/05/21 02:07:19;;;;;;;;;;;;;;;18.79;71.86;100564.16;5008096;28;1794;-61
2021/05/21 02:09:53;;;;;;;;;;;;;;;18.75;71.37;100560.91;5007203;28;1623;-61
2021/05/21 02:12:20;;;;;;;;;;;;;;;18.76;71.54;100561.72;5004847;28;1492;-59
2021/05/21 02:14:46;;;;;;;;;;;;;;;18.77;72.00;100574.16;5004098;28;1618;-60
2021/05/21 02:17:12;;;;;;;;;;;;;;;18.74;71.48;100580.66;5003806;28;1391;-59
2021/05/21 02:19:38;;;;;;;;;;;;;;;18.75;72.50;100571.59;5005521;28;1961;-59
2021/05/21 02:22:06;;;;;;;;;;;;;;;18.75;72.37;100562.72;5003209;28;1595;-59
2021/05/21 02:24:32;;;;;;;;;;;;;;;18.75;72.37;100568.94;5010294;28;1634;-59
2021/05/21 02:26:58;;;;;;;;;;;;;;;18.76;72.18;100559.06;5002369;28;1796;-59
2021/05/21 02:29:25;;;;;;;;;;;;;;;18.73;72.39;100567.38;5004146;28;1488;-59
2021/05/21 02:31:51;;;;;;;;;;;;;;;18.75;71.55;100576.97;5004261;28;1603;-59
2021/05/21 02:34:18;;;;;;;;;;;;;;;18.74;71.66;100574.41;5009763;28;1596;-62
2021/05/21 02:36:44;;;;;;;;;;;;;;;18.74;72.10;100569.06;5001093;28;1486;-62
2021/05/21 02:39:10;;;;;;;;;;;;;;;18.78;71.53;100575.84;5010491;28;1789;-59
2021/05/21 02:41:36;;;;;;;;;;;;;;;18.78;71.32;100581.19;4999874;28;1898;-59
2021/05/21 02:44:02;;;;;;;;;;;;;;;18.82;71.50;100585.31;5008226;28;1485;-59
2021/05/21 02:46:30;;;;;;;;;;;;;;;18.86;71.49;100584.06;5007741;28;1524;-59
2021/05/21 02:48:56;;;;;;;;;;;;;;;18.88;72.29;100592.81;5014073;28;971;-59
2021/05/21 02:51:22;;;;;;;;;;;;;;;18.86;71.13;100595.63;5006509;28;1753;-59
2021/05/21 02:53:48;;;;;;;;;;;;;;;18.89;72.15;100599.88;5010636;28;1506;-60
2021/05/21 02:56:14;;;;;;;;;;;;;;;18.88;73.41;100598.19;5007333;28;1430;-60
2021/05/21 02:58:40;;;;;;;;;;;;;;;18.80;74.75;100600.69;5003353;28;1511;-61
2021/05/21 03:01:06;;;;;;;;;;;;;;;18.76;76.41;100609.94;5003096;28;1902;-61
2021/05/21 03:03:33;;;;;;;;;;;;;;;18.72;76.74;100604.06;5006771;28;1588;-62
2021/05/21 03:06:00;;;;;;;;;;;;;;;18.70;77.08;100600.63;5005271;28;1702;-61
2021/05/21 03:08:26;;;;;;;;;;;;;;;18.80;73.85;100606.03;5001305;28;1687;-62
2021/05/21 03:10:52;;;;;;;;;;;;;;;18.84;76.23;100602.97;4999272;28;1532;-62
2021/05/21 03:13:18;;;;;;;;;;;;;;;18.83;74.60;100597.75;5001431;28;1531;-62
2021/05/21 03:15:44;;;;;;;;;;;;;;;18.90;74.42;100617.66;5001137;28;1453;-60
2021/05/21 03:18:14;;;;;;;;;;;;;;;18.92;74.44;100614.81;5004504;28;1087;-60
2021/05/21 03:20:41;;;;;;;;;;;;;;;18.89;75.56;100615.94;5008521;28;1906;-58
2021/05/21 03:23:08;;;;;;;;;;;;;;;18.83;76.98;100627.22;5000951;28;1480;-59
2021/05/21 03:25:34;;;;;;;;;;;;;;;18.76;77.19;100618.00;5001154;28;1578;-59
2021/05/21 03:28:00;;;;;;;;;;;;;;;18.69;76.67;100621.22;5001539;28;1598;-59
2021/05/21 03:30:27;;;;;;;;;;;;;;;18.73;77.96;100620.97;5009642;28;1532;-59
2021/05/21 03:32:53;;;;;;;;;;;;;;;18.76;74.87;100632.25;5007259;28;1503;-59
2021/05/21 03:35:19;;;;;;;;;;;;;;;18.78;77.13;100635.63;5009936;28;1490;-58
2021/05/21 03:37:46;;;;;;;;;;;;;;;18.78;75.80;100638.31;5000987;28;1501;-59
2021/05/21 03:40:13;;;;;;;;;;;;;;;18.74;77.04;100641.38;5001677;28;1987;-59
2021/05/21 03:42:39;;;;;;;;;;;;;;;18.77;76.70;100646.47;5003050;28;1655;-59
2021/05/21 03:45:07;;;;;;;;;;;;;;;18.73;75.63;100642.38;5001221;28;1575;-59
2021/05/21 03:47:33;;;;;;;;;;;;;;;18.74;77.16;100641.38;5004565;28;1010;-59
2021/05/21 03:49:59;;;;;;;;;;;;;;;18.74;74.79;100638.72;4998570;28;1719;-59
2021/05/21 03:52:25;;;;;;;;;;;;;;;18.77;76.46;100646.47;5006428;28;1509;-60
2021/05/21 03:54:52;;;;;;;;;;;;;;;18.77;77.01;100649.16;5005795;28;1402;-59
2021/05/21 03:57:20;;;;;;;;;;;;;;;18.76;75.02;100648.31;5008093;28;1041;-59
2021/05/21 03:59:46;;;;;;;;;;;;;;;18.75;76.65;100656.50;5003696;28;1966;-59
2021/05/21 04:02:12;;;;;;;;;;;;;;;18.70;76.98;100627.41;5004523;28;1485;-59
2021/05/21 04:04:39;;;;;;;;;;;;;;;18.71;78.31;100633.63;5015839;28;1823;-59
2021/05/21 04:07:05;;;;;;;;;;;;;;;18.73;77.49;100634.34;5005554;28;1511;-59
2021/05/21 04:09:31;;;;;;;;;;;;;;;18.71;75.67;100615.72;5005309;28;983;-59
2021/05/21 04:11:58;;;;;;;;;;;;;;;18.72;77.49;100640.69;5005016;28;1722;-59
2021/05/21 04:14:24;;;;;;;;;;;;;;;18.70;77.65;100638.13;5007239;28;1714;-59
2021/05/21 04:16:50;;;;;;;;;;;;;;;18.72;77.30;100632.63;5007763;28;1446;-59
2021/05/21 04:19:16;;;;;;;;;;;;;;;18.74;77.15;100644.06;5013446;28;1045;-59
2021/05/21 04:21:43;;;;;;;;;;;;;;;18.74;78.13;100644.06;5004105;28;1903;-59
2021/05/21 04:24:09;;;;;;;;;;;;;;;18.74;76.33;100652.09;5004931;28;1636;-59
2021/05/21 04:26:35;;;;;;;;;;;;;;;18.68;77.93;100646.31;5006493;28;1438;-59
2021/05/21 04:29:02;;;;;;;;;;;;;;;18.74;78.83;100646.75;5006590;28;1572;-60
2021/05/21 04:31:28;;;;;;;;;;;;;;;18.71;78.48;100645.19;5009420;28;1612;-59
2021/05/21 04:33:55;;;;;;;;;;;;;;;18.72;78.04;100651.38;5014041;28;1631;-60
2021/05/21 04:36:21;;;;;;;;;;;;;;;18.77;77.57;100654.53;5005701;28;1770;-60
2021/05/21 04:38:47;;;;;;;;;;;;;;;18.77;77.22;100659.88;5011720;28;1626;-59
2021/05/21 04:41:14;;;;;;;;;;;;;;;18.81;76.75;100667.53;5005800;28;1907;-59
2021/05/21 04:43:40;;;;;;;;;;;;;;;18.82;76.81;100665.69;5005201;28;1579;-59
2021/05/21 04:46:07;;;;;;;;;;;;;;;18.83;76.97;100672.75;5006985;28;1763;-59
2021/05/21 04:48:33;;;;;;;;;;;;;;;18.82;78.95;100684.44;5003934;28;1706;-59
2021/05/21 04:51:00;;;;;;;;;;;;;;;18.80;79.10;100681.06;5008623;28;1562;-60
2021/05/21 04:53:26;;;;;;;;;;;;;;;18.81;79.20;100691.66;5006088;28;1501;-59
2021/05/21 04:55:52;;;;;;;;;;;;;;;18.81;79.87;100706.88;5005810;28;1583;-59
2021/05/21 04:58:18;;;;;;;;;;;;;;;18.80;79.95;100707.84;5004695;28;1579;-60
2021/05/21 05:00:44;;;;;;;;;;;;;;;18.79;78.28;100716.84;5010785;28;1995;-59
2021/05/21 05:03:13;;;;;;;;;;;;;;;18.79;79.30;100728.44;5006918;28;1400;-59
2021/05/21 05:05:39;;;;;;;;;;;;;;;18.82;79.12;100732.66;5006651;28;1599;-59
2021/05/21 05:08:05;;;;;;;;;;;;;;;18.79;80.13;100735.59;5005875;28;1575;-60
2021/05/21 05:10:32;;;;;;;;;;;;;;;18.80;79.79;100742.66;5005547;28;1634;-59
2021/05/21 05:12:58;;;;;;;;;;;;;;;18.77;78.79;100745.59;5005495;28;1559;-59
2021/05/21 05:15:24;;;;;;;;;;;;;;;18.80;79.20;100762.31;5009709;28;1733;-59
2021/05/21 05:17:51;;;;;;;;;;;;;;;18.51;77.15;100707.72;5005430;28;1567;-59
2021/05/21 05:20:21;;;;;;;;;;;;;;;18.94;76.35;100752.19;5004684;28;1902;-56
2021/05/21 05:22:47;;;;;;;;;;;;;;;18.98;74.45;100749.13;5011508;28;1501;-58
2021/05/21 05:25:13;;;;;;;;;;;;;;;19.07;73.98;100761.69;5011341;28;1081;-59
2021/05/21 05:27:39;;;;;;;;;;;;;;;19.08;74.31;100750.00;5003501;28;1548;-59
2021/05/21 05:30:06;;;;;;;;;;;;;;;19.01;73.94;100748.81;5003575;28;1557;-59
2021/05/21 05:32:32;;;;;;;;;;;;;;;18.95;73.78;100737.81;5007126;28;1665;-59
2021/05/21 05:34:58;;;;;;;;;;;;;;;18.96;73.13;100745.72;4997975;28;1599;-59
2021/05/21 05:37:25;;;;;;;;;;;;;;;18.93;72.47;100732.56;5004582;28;1564;-59
2021/05/21 05:39:51;;;;;;;;;;;;;;;18.85;71.95;100740.44;5003964;28;1906;-59
2021/05/21 05:42:17;;;;;;;;;;;;;;;18.69;71.55;100744.44;5009129;28;1073;-60
2021/05/21 05:44:43;;;;;;;;;;;;;;;18.71;70.88;100746.97;5003280;28;1879;-59
2021/05/21 05:47:09;;;;;;;;;;;;;;;18.72;70.90;100747.81;5002756;28;1714;-59
2021/05/21 05:49:35;;;;;;;;;;;;;;;18.70;70.21;100745.28;5013728;28;1567;-59
2021/05/21 05:52:02;;;;;;;;;;;;;;;18.71;70.51;100759.53;5004267;28;1118;-59
2021/05/21 05:54:29;;;;;;;;;;;;;;;18.73;71.06;100757.56;5003021;28;1706;-59
2021/05/21 05:56:55;;;;;;;;;;;;;;;18.77;69.77;100767.03;5002899;28;1596;-61
2021/05/21 05:59:21;;;;;;;;;;;;;;;18.79;69.21;100765.06;5004509;28;1710;-59
2021/05/21 06:01:47;;;;;;;;;;;;;;;18.81;69.61;100760.47;5010695;28;1971;-59
2021/05/21 06:04:13;;;;;;;;;;;;;;;18.79;69.43;100765.94;5012385;28;1294;-59
2021/05/21 06:06:39;;;;;;;;;;;;;;;18.74;70.22;100751.22;5004768;28;1754;-59
2021/05/21 06:09:08;;;;;;;;;;;;;;;18.72;69.06;100755.84;5004342;28;1709;-60
2021/05/21 06:11:35;;;;;;;;;;;;;;;18.74;69.01;100764.59;5004296;28;1576;-59
2021/05/21 06:14:01;;;;;;;;;;;;;;;18.74;69.85;100759.25;5001252;28;1499;-58
2021/05/21 06:16:27;;;;;;;;;;;;;;;18.78;70.17;100753.50;5004096;28;1566;-59
2021/05/21 06:18:53;;;;;;;;;;;;;;;18.83;70.73;100761.16;5009373;28;1745;-59
2021/05/21 06:21:19;;;;;;;;;;;;;;;18.78;69.68;100758.00;4999865;28;1977;-59
2021/05/21 06:23:45;;;;;;;;;;;;;;;18.78;69.08;100755.31;5004609;28;1710;-59
2021/05/21 06:26:16;;;;;;;;;;;;;;;18.76;70.79;100755.47;5004422;28;1615;-59
2021/05/21 06:28:42;;;;;;;;;;;;;;;18.77;69.70;100764.34;5004064;28;1630;-59
2021/05/21 06:31:09;;;;;;;;;;;;;;;18.80;69.18;100764.09;5004113;28;1547;-59
2021/05/21 06:33:35;;;;;;;;;;;;;;;18.77;69.33;100772.41;5005923;28;1066;-59
2021/05/21 06:36:01;;;;;;;;;;;;;;;18.75;69.19;100785.06;5006175;28;1762;-59
2021/05/21 06:38:27;;;;;;;;;;;;;;;18.73;69.22;100763.78;5006138;28;1662;-58
2021/05/21 06:40:53;;;;;;;;;;;;;;;18.80;70.10;100780.19;5005538;28;1914;-59
2021/05/21 06:43:20;;;;;;;;;;;;;;;18.80;71.45;100777.50;5010716;28;1577;-59
2021/05/21 06:45:48;;;;;;;;;;;;;;;18.83;73.06;100777.25;5010306;28;1667;-62
2021/05/21 06:48:14;;;;;;;;;;;;;;;18.83;73.64;100777.25;5007899;28;1485;-62
2021/05/21 06:50:41;;;;;;;;;;;;;;;18.83;74.27;100788.81;5008772;28;1469;-58
2021/05/21 06:53:07;;;;;;;;;;;;;;;18.86;74.67;100787.69;5003318;28;1360;-63
2021/05/21 06:55:33;;;;;;;;;;;;;;;18.87;74.96;100778.66;5008612;28;1507;-57
2021/05/21 06:57:59;;;;;;;;;;;;;;;18.89;75.55;100784.75;5005573;28;1591;-58
2021/05/21 07:00:25;;;;;;;;;;;;;;;18.92;75.50;100797.88;5003242;28;1927;-58
2021/05/21 07:02:53;;;;;;;;;;;;;;;18.90;76.01;100799.84;5003182;28;1466;-58
2021/05/21 07:05:19;;;;;;;;;;;;;;;18.94;73.97;100801.28;5010178;28;1718;-57
2021/05/21 07:07:45;;;;;;;;;;;;;;;18.97;75.08;100801.00;5004348;28;1446;-58
2021/05/21 07:10:12;;;;;;;;;;;;;;;18.98;76.76;100801.84;5002637;28;1408;-59
2021/05/21 07:12:38;;;;;;;;;;;;;;;18.95;74.70;100797.59;5003301;28;1580;-61
2021/05/21 07:15:05;;;;;;;;;;;;;;;19.01;73.51;100809.63;5014020;28;1611;-59
2021/05/21 07:17:31;;;;;;;;;;;;;;;19.00;76.24;100811.47;5010945;28;1592;-59
2021/05/21 07:19:58;;;;;;;;;;;;;;;19.02;76.71;100808.63;5013215;28;1910;-58
2021/05/21 07:22:24;;;;;;;;;;;;;;;19.06;76.15;100802.03;5002868;28;1571;-58
2021/05/21 07:24:50;;;;;;;;;;;;;;;19.07;73.06;100801.03;5001854;28;1410;-59
2021/05/21 07:27:16;;;;;;;;;;;;;;;19.17;72.78;100793.03;5002303;28;1021;-57
2021/05/21 07:29:43;;;;;;;;;;;;;;;19.22;72.74;100804.22;5001428;28;1915;-59
2021/05/21 07:32:09;;;;;;;;;;;;;;;19.23;73.68;100795.16;5003087;28;1701;-59
2021/05/21 07:34:35;;;;;;;;;;;;;;;19.28;73.29;100815.22;5002916;28;1535;-59
2021/05/21 07:37:02;;;;;;;;;;;;;;;19.28;72.55;100809.88;5003862;28;1796;-60
2021/05/21 07:39:28;;;;;;;;;;;;;;;19.35;73.12;100830.78;5001050;28;1762;-59
2021/05/21 07:41:56;;;;;;;;;;;;;;;19.33;73.66;100822.00;5001128;28;1910;-57
2021/05/21 07:44:22;;;;;;;;;;;;;;;19.37;72.53;100812.72;5002544;28;1414;-58
2021/05/21 07:46:50;;;;;;;;;;;;;;;19.37;72.04;100818.91;5008178;28;1497;-59
2021/05/21 07:49:22;;;;;;;;;;;;;;;19.42;72.19;100831.94;4995895;28;1057;-59
2021/05/21 07:51:48;;;;;;;;;;;;;;;19.53;71.61;100828.28;5000414;28;1719;-58
2021/05/21 07:54:15;;;;;;;;;;;;;;;19.51;71.70;100823.03;5000886;28;1610;-58
2021/05/21 07:56:41;;;;;;;;;;;;;;;19.50;72.39;100829.41;5002678;28;1780;-57
2021/05/21 07:59:09;;;;;;;;;;;;;;;19.51;71.45;100824.88;5002954;28;1627;-59
2021/05/21 08:01:35;;;;;;;;;;;;;;;19.51;70.54;100825.72;5004243;28;1910;-58
2021/05/21 08:04:02;;;;;;;;;;;;;;;19.50;71.16;100825.84;5007983;28;1291;-58
2021/05/21 08:06:28;;;;;;;;;;;;;;;19.52;71.42;100821.19;5003630;28;1719;-59
2021/05/21 08:08:54;;;;;;;;;;;;;;;19.54;71.85;100827.31;5010382;28;1428;-59
2021/05/21 08:11:21;;;;;;;;;;;;;;;19.53;71.64;100830.97;5009081;28;1489;-59
2021/05/21 08:13:47;;;;;;;;;;;;;;;19.56;71.83;100822.66;5009274;28;1473;-57
2021/05/21 08:16:13;;;;;;;;;;;;;;;19.54;71.33;100813.91;5008545;28;1524;-57
2021/05/21 08:18:40;;;;;;;;;;;;;;;19.56;70.46;100811.94;5004852;28;1345;-59
2021/05/21 08:21:06;;;;;;;;;;;;;;;19.59;70.65;100844.66;5009089;28;1974;-59
2021/05/21 08:23:32;;;;;;;;;;;;;;;19.56;70.46;100830.69;5001346;28;1454;-58
2021/05/21 08:25:58;;;;;;;;;;;;;;;19.52;71.59;100831.94;5003518;28;1685;-58
2021/05/21 08:28:26;;;;;;;;;;;;;;;19.54;71.13;100840.72;5007466;28;1473;-62
2021/05/21 08:30:52;;;;;;;;;;;;;;;19.52;71.38;100839.97;5009821;28;1426;-63
2021/05/21 08:33:19;;;;;;;;;;;;;;;19.52;70.96;100853.38;5010208;28;1088;-62
2021/05/21 08:35:45;;;;;;;;;;;;;;;19.52;71.03;100838.16;5010496;28;1435;-63
2021/05/21 08:38:11;;;;;;;;;;;;;;;19.51;70.73;100839.13;5012728;28;1394;-62
2021/05/21 08:40:38;;;;;;;;;;;;;;;19.52;71.53;100837.28;5009957;28;1902;-60
2021/05/21 08:43:06;;;;;;;;;;;;;;;19.55;71.10;100842.41;5006085;28;1490;-61
2021/05/21 08:45:33;;;;;;;;;;;;;;;19.52;71.32;100854.25;5008080;28;1458;-60
2021/05/21 08:48:00;;;;;;;;;;;;;;;19.51;71.35;100843.66;5009479;28;1181;-60
2021/05/21 08:50:27;;;;;;;;;;;;;;;19.53;70.43;100855.94;5012020;28;1454;-61
2021/05/21 08:52:53;;;;;;;;;;;;;;;19.51;71.01;100857.06;5009268;28;1700;-62
2021/05/21 08:55:19;;;;;;;;;;;;;;;19.53;70.42;100855.94;5004675;28;1313;-63
2021/05/21 08:57:45;;;;;;;;;;;;;;;19.48;70.55;100853.69;5013343;28;1643;-62
2021/05/21 09:00:12;;;;;;;;;;;;;;;19.53;70.57;100864.00;5010513;28;1973;-63
2021/05/21 09:02:39;;;;;;;;;;;;;;;19.47;70.95;100851.13;5003625;28;1381;-63
2021/05/21 09:05:07;;;;;;;;;;;;;;;19.53;70.53;100852.41;5012752;28;1617;-63
2021/05/21 09:07:34;;;;;;;;;;;;;;;19.44;70.75;100838.84;5012681;28;1542;-63
2021/05/21 09:10:05;;;;;;;;;;;;;;;19.12;70.21;100792.59;5009976;28;1591;-64
2021/05/21 09:12:38;;;;;;;;;;;;;;;19.35;70.08;100845.03;5012094;28;1489;-63
2021/05/21 09:15:05;;;;;;;;;;;;;;;19.33;70.08;100844.31;5008041;28;1483;-64
2021/05/21 09:17:32;;;;;;;;;;;;;;;19.30;69.73;100852.63;5007938;28;1551;-64
2021/05/21 09:19:59;;;;;;;;;;;;;;;18.94;66.15;100859.38;5007446;28;1969;-62
2021/05/21 09:22:25;;;;;;;;;;;;;;;19.02;67.63;100857.75;5010593;28;1437;-66
2021/05/21 09:24:52;;;;;;;;;;;;;;;19.13;69.25;100853.25;5013724;28;1728;-62
2021/05/21 09:27:19;;;;;;;;;;;;;;;19.18;70.26;100870.66;5012559;28;1532;-67
2021/05/21 09:29:46;;;;;;;;;;;;;;;19.21;69.80;100864.16;5009256;28;1471;-60
2021/05/21 09:32:20;;;;;;;;;;;;;;;19.25;69.59;100849.50;5009963;28;1654;-63
2021/05/21 09:34:48;;;;;;;;;;;;;;;19.27;69.80;100861.78;5013355;28;1608;-61
2021/05/21 09:37:22;;;;;;;;;;;;;;;19.35;68.94;100873.69;5013292;28;1644;-65
2021/05/21 09:40:01;;;;;;;;;;;;;;;19.37;68.94;100864.50;5009551;28;1489;-64
2021/05/21 09:42:27;;;;;;;;;;;;;;;19.47;69.46;100860.00;5009107;28;1588;-68
2021/05/21 09:44:53;;;;;;;;;;;;;;;19.57;68.94;100862.72;5011366;28;1497;-64
2021/05/21 09:47:19;;;;;;;;;;;;;;;19.55;69.44;100869.22;5005077;28;1678;-61
2021/05/21 09:49:46;;;;;;;;;;;;;;;19.57;70.01;100857.38;5011230;28;1604;-59
2021/05/21 09:52:14;;;;;;;;;;;;;;;19.49;66.24;100849.16;5010451;28;1482;-57
2021/05/21 09:54:51;;;;;;;;;;;;;;;19.52;66.48;100848.03;5012712;28;1467;-57
2021/05/21 09:57:28;;;;;;;;;;;;;;;19.44;66.29;100852.25;5009503;28;1477;-61
2021/05/21 09:59:54;;;;;;;;;;;;;;;19.31;63.29;100861.53;5008648;28;1054;-59
2021/05/21 10:02:21;;;;;;;;;;;;;;;19.26;64.31;100857.41;5008449;28;1983;-60
2021/05/21 10:04:47;;;;;;;;;;;;;;;19.26;64.37;100854.72;5010715;28;1759;-60
2021/05/21 10:07:13;;;;;;;;;;;;;;;19.29;64.32;100858.97;5012201;28;1651;-59
2021/05/21 10:09:40;;;;;;;;;;;;;;;19.24;62.51;100839.78;5010066;28;1333;-62
2021/05/21 10:12:07;;;;;;;;;;;;;;;19.19;61.41;100858.09;5009989;28;1599;-61
2021/05/21 10:14:33;;;;;;;;;;;;;;;19.16;60.89;100850.31;4995852;28;1746;-61
2021/05/21 10:17:00;;;;;;;;;;;;;;;19.25;60.96;100868.28;5011152;28;1808;-58
2021/05/21 10:19:26;;;;;;;;;;;;;;;19.35;60.96;100855.75;5007451;28;1578;-59
2021/05/21 10:21:52;;;;;;;;;;;;;;;19.39;61.25;100857.16;5010797;28;1902;-74
2021/05/21 10:24:20;;;;;;;;;;;;;;;19.43;62.09;100861.28;5010848;28;1562;-67
2021/05/21 10:26:49;;;;;;;;;;;;;;;19.45;62.85;100864.66;5007487;28;1455;-67
2021/05/21 10:29:19;;;;;;;;;;;;;;;19.47;61.33;100862.69;5006482;28;1547;-67
2021/05/21 10:31:45;;;;;;;;;;;;;;;19.46;62.95;100855.66;5007519;28;1713;-67
2021/05/21 10:34:13;;;;;;;;;;;;;;;19.42;63.50;100870.31;5008271;28;1681;-67
2021/05/21 10:36:39;;;;;;;;;;;;;;;19.44;64.42;100857.63;5006812;28;1466;-58
2021/05/21 10:39:06;;;;;;;;;;;;;;;19.41;64.72;100865.09;5010647;28;1689;-62
2021/05/21 10:41:33;;;;;;;;;;;;;;;19.37;64.94;100861.81;5008787;28;1918;-61
2021/05/21 10:43:59;;;;;;;;;;;;;;;19.33;65.15;100863.06;5010509;28;1469;-62
2021/05/21 10:46:27;;;;;;;;;;;;;;;19.36;65.19;100878.03;5010506;28;1492;-62
2021/05/21 10:48:54;;;;;;;;;;;;;;;19.36;65.38;100868.19;5007918;28;1737;-62
2021/05/21 10:51:22;;;;;;;;;;;;;;;19.36;65.79;100870.00;5007968;28;1658;-61
2021/05/21 10:53:48;;;;;;;;;;;;;;;19.38;65.11;100868.06;5009321;28;1482;-67
2021/05/21 10:56:15;;;;;;;;;;;;;;;19.35;64.71;100862.94;5008420;28;1430;-60
2021/05/21 10:58:44;;;;;;;;;;;;;;;19.32;63.19;100865.88;5008148;28;1781;-58
2021/05/21 11:01:12;;;;;;;;;;;;;;;19.35;63.36;100882.56;5006442;28;1975;-58
2021/05/21 11:03:56;;;;;;;;;;;;;;;19.40;64.30;100882.19;5007153;28;1162;-58
2021/05/21 11:06:23;;;;;;;;;;;;;;;19.45;63.72;100870.03;4996911;28;1972;-58
2021/05/21 11:08:50;;;;;;;;;;;;;;;19.45;64.77;100877.25;5010656;28;1694;-58
2021/05/21 11:11:16;;;;;;;;;;;;;;;19.48;65.87;100875.13;5012427;28;1717;-58
2021/05/21 11:13:42;;;;;;;;;;;;;;;19.43;66.39;100877.38;5008504;28;1546;-61
2021/05/21 11:16:11;;;;;;;;;;;;;;;19.39;65.77;100865.22;5010780;28;1413;-62
2021/05/21 11:18:46;;;;;;;;;;;;;;;19.34;65.84;100856.75;5005895;28;1515;-59
2021/05/21 11:21:17;;;;;;;;;;;;;;;19.37;64.30;100872.53;5010272;28;1922;-61
2021/05/21 11:23:55;;;;;;;;;;;;;;;19.37;63.46;100872.53;5005288;28;1422;-62
2021/05/21 11:26:22;;;;;;;;;;;;;;;19.38;65.19;100866.22;5006794;28;1440;-61
2021/05/21 11:28:49;;;;;;;;;;;;;;;19.38;65.71;100885.00;5009231;28;1367;-61
2021/05/21 11:31:16;;;;;;;;;;;;;;;19.39;66.14;100885.81;5008055;28;1505;-61
2021/05/21 11:33:44;;;;;;;;;;;;;;;19.35;65.40;100881.72;5013983;28;1209;-61
2021/05/21 11:36:10;;;;;;;;;;;;;;;19.33;65.66;100887.22;5010695;28;1783;-61
2021/05/21 11:38:37;;;;;;;;;;;;;;;19.35;66.32;100903.16;5008264;28;1473;-61
2021/05/21 11:41:04;;;;;;;;;;;;;;;19.33;65.37;100913.19;5008774;28;1910;-61
2021/05/21 11:43:30;;;;;;;;;;;;;;;19.31;65.95;100894.53;5006047;28;1728;-62
2021/05/21 11:45:57;;;;;;;;;;;;;;;19.30;65.14;100892.84;5007584;28;1528;-58
2021/05/21 11:48:33;;;;;;;;;;;;;;;19.28;64.34;100905.56;5011244;28;1374;-65
2021/05/21 11:51:01;;;;;;;;;;;;;;;19.37;64.36;100903.88;5011317;28;1542;-57
2021/05/21 11:53:27;;;;;;;;;;;;;;;19.37;64.43;100909.25;5003628;28;1446;-63
2021/05/21 11:55:53;;;;;;;;;;;;;;;19.37;65.48;100901.19;5008410;28;1783;-64
2021/05/21 11:58:21;;;;;;;;;;;;;;;19.37;66.15;100904.72;5009314;28;1469;-63
2021/05/21 12:00:49;;;;;;;;;;;;;;;19.40;66.28;100895.59;5002480;28;1914;-64
2021/05/21 12:03:15;;;;;;;;;;;;;;;19.43;65.73;100889.94;5008592;28;1692;-57
2021/05/21 12:05:42;;;;;;;;;;;;;;;19.43;66.06;100903.34;5007335;28;1513;-57
2021/05/21 12:08:08;;;;;;;;;;;;;;;19.45;66.42;100906.75;5007754;28;1580;-63
2021/05/21 12:10:34;;;;;;;;;;;;;;;19.44;66.06;100902.38;5008378;28;1540;-63
2021/05/21 12:13:06;;;;;;;;;;;;;;;19.51;65.71;100894.63;5014887;28;1751;-57
2021/05/21 12:15:35;;;;;;;;;;;;;;;19.53;66.08;100895.34;5015670;28;1465;-58
2021/05/21 12:18:03;;;;;;;;;;;;;;;19.57;65.48;100892.22;5022696;28;1248;-57
2021/05/21 12:20:30;;;;;;;;;;;;;;;19.53;65.70;100889.97;5022533;28;1910;-56
2021/05/21 12:23:00;;;;;;;;;;;;;;;19.53;65.63;100892.66;5020840;28;1480;-57
2021/05/21 12:25:27;;;;;;;;;;;;;;;19.52;64.58;100899.00;5017879;28;1521;-59
2021/05/21 12:27:54;;;;;;;;;;;;;;;19.54;64.17;100905.09;5012320;28;1418;-60
2021/05/21 12:30:20;;;;;;;;;;;;;;;19.54;63.17;100895.22;5012199;28;1492;-57
2021/05/21 12:32:48;;;;;;;;;;;;;;;19.53;64.33;100898.84;5015354;28;1480;-58
2021/05/21 12:35:16;;;;;;;;;;;;;;;19.62;63.89;100905.25;5014364;28;1545;-58
2021/05/21 12:37:45;;;;;;;;;;;;;;;19.66;64.06;100904.84;5014230;28;1406;-60
2021/05/21 12:40:12;;;;;;;;;;;;;;;19.70;64.12;100900.06;5014688;28;1430;-63
2021/05/21 12:42:46;;;;;;;;;;;;;;;19.70;64.07;100915.31;5014067;28;1995;-61
2021/05/21 12:45:13;;;;;;;;;;;;;;;19.64;65.04;100914.03;5014564;28;1441;-60